createdAt,value
2022-09-05T00:01:46.254Z,2.50
2022-09-05T00:04:36.962Z,2.70
2022-09-05T00:07:59.596Z,3.20
2022-09-05T00:10:36.177Z,2.67
2022-09-05T00:13:12.645Z,2.90
2022-09-05T00:15:51.878Z,3.10
2022-09-05T00:22:09.541Z,3.30
2022-09-05T00:24:32.398Z,3.67
2022-09-05T00:25:46.622Z,3.47
2022-09-05T00:28:48.586Z,3.90
2022-09-05T00:31:57.231Z,3.20
2022-09-05T00:34:56.229Z,3.07
2022-09-05T00:37:32.117Z,3.40
2022-09-05T00:40:20.127Z,3.40
2022-09-05T00:42:56.744Z,3.40
2022-09-05T00:45:33.678Z,3.40
2022-09-05T00:48:23.362Z,3.60
2022-09-05T00:51:15.102Z,3.40
2022-09-05T00:53:54.148Z,3.43
2022-09-05T00:56:53.618Z,3.10
2022-09-05T00:59:58.704Z,3.47
2022-09-05T01:02:57.744Z,2.97
2022-09-05T01:05:53.182Z,2.90
2022-09-05T01:09:09.985Z,2.60
2022-09-05T01:12:09.923Z,2.77
2022-09-05T01:14:55.620Z,2.67
2022-09-05T01:17:50.457Z,3.27
2022-09-05T01:20:55.830Z,2.40
2022-09-05T01:24:15.307Z,3.17
2022-09-05T01:27:33.834Z,3.10
2022-09-05T01:30:20.307Z,2.60
2022-09-05T01:32:56.839Z,2.50
2022-09-05T01:36:06.931Z,3.23
2022-09-05T01:39:49.214Z,3.70
2022-09-05T01:42:25.919Z,3.17
2022-09-05T01:45:29.575Z,3.20
2022-09-05T01:48:21.457Z,3.60
2022-09-05T01:51:36.472Z,4.23
2022-09-05T01:54:38.162Z,4.50
2022-09-05T01:57:34.171Z,3.53
2022-09-05T02:00:22.114Z,2.90
2022-09-05T02:03:20.457Z,3.80
2022-09-05T02:06:05.753Z,3.67
2022-09-05T02:09:10.952Z,3.57
2022-09-05T02:12:02.116Z,2.90
2022-09-05T02:14:42.939Z,3.50
2022-09-05T02:17:50.784Z,3.70
2022-09-05T02:20:35.309Z,3.80
2022-09-05T02:23:36.744Z,3.87
2022-09-05T02:26:23.675Z,3.97
2022-09-05T02:29:05.569Z,3.73
2022-09-05T02:31:52.875Z,3.10
2022-09-05T02:34:48.626Z,3.40
2022-09-05T02:38:43.917Z,3.50
2022-09-05T02:45:12.048Z,3.47
2022-09-05T02:45:19.794Z,3.47
2022-09-05T02:47:22.519Z,4.10
2022-09-05T02:54:44.896Z,3.60
2022-09-05T02:57:38.561Z,3.17
2022-09-05T02:57:41.754Z,3.80
2022-09-05T02:59:54.500Z,3.00
2022-09-05T03:03:01.353Z,3.60
2022-09-05T03:05:37.499Z,3.37
2022-09-05T03:08:22.279Z,3.87
2022-09-05T03:11:53.875Z,3.73
2022-09-05T03:15:03.758Z,5.00
2022-09-05T03:18:27.333Z,4.00
2022-09-05T03:21:37.982Z,3.10
2022-09-05T03:24:58.061Z,3.27
2022-09-05T03:27:46.565Z,2.97
2022-09-05T03:30:21.306Z,3.47
2022-09-05T03:32:49.101Z,3.60
2022-09-05T03:36:19.864Z,4.10
2022-09-05T03:39:23.435Z,4.87
2022-09-05T03:42:14.752Z,3.83
2022-09-05T03:45:36.376Z,3.60
2022-09-05T03:48:35.704Z,2.73
2022-09-05T03:57:19.856Z,4.03
2022-09-05T03:57:23.099Z,3.70
2022-09-05T03:58:16.726Z,4.07
2022-09-05T04:03:32.951Z,4.60
2022-09-05T04:08:15.724Z,5.00
2022-09-05T04:08:23.966Z,4.33
2022-09-05T04:10:55.538Z,4.80
2022-09-05T04:13:31.626Z,4.37
2022-09-05T04:16:54.789Z,3.63
2022-09-05T04:19:28.911Z,3.47
2022-09-05T04:22:25.035Z,3.90
2022-09-05T04:25:44.389Z,4.40
2022-09-05T04:28:44.627Z,3.80
2022-09-05T04:32:18.038Z,4.33
2022-09-05T04:35:10.376Z,4.03
2022-09-05T04:37:55.942Z,4.67
2022-09-05T04:41:04.455Z,4.00
2022-09-05T04:43:51.798Z,4.30
2022-09-05T04:46:48.829Z,3.37
2022-09-05T04:49:31.565Z,3.33
2022-09-05T04:52:36.345Z,4.20
2022-09-05T04:58:01.303Z,4.47
2022-09-05T05:05:58.759Z,4.23
2022-09-05T05:06:11.537Z,4.70
2022-09-05T05:06:46.742Z,5.20
2022-09-05T05:09:26.279Z,4.57
2022-09-05T05:18:02.286Z,4.90
2022-09-05T05:18:04.179Z,4.90
2022-09-05T05:18:36.529Z,4.93
2022-09-05T05:21:09.228Z,4.60
2022-09-05T05:23:41.206Z,4.73
2022-09-05T05:26:22.229Z,4.87
2022-09-05T05:29:27.459Z,3.60
2022-09-05T05:32:00.377Z,4.00
2022-09-05T05:34:42.112Z,4.00
2022-09-05T05:37:31.753Z,4.40
2022-09-05T05:40:41.321Z,4.37
2022-09-05T05:43:27.555Z,3.27
2022-09-05T05:45:59.738Z,4.20
2022-09-05T05:48:34.917Z,4.20
2022-09-05T05:52:01.434Z,4.50
2022-09-05T05:54:50.678Z,4.40
2022-09-05T05:58:15.841Z,4.20
2022-09-05T06:01:31.558Z,4.53
2022-09-05T06:04:59.643Z,4.00
2022-09-05T06:10:31.769Z,4.40
2022-09-05T06:14:49.474Z,5.10
2022-09-05T06:15:02.191Z,4.50
2022-09-05T06:17:32.023Z,4.97
2022-09-05T06:22:07.295Z,5.33
2022-09-05T06:24:02.839Z,5.67
2022-09-05T06:26:51.171Z,5.10
2022-09-05T06:29:41.048Z,5.20
2022-09-05T06:32:27.308Z,5.90
2022-09-05T06:35:26.866Z,5.00
2022-09-05T06:38:13.980Z,5.87
2022-09-05T06:41:20.624Z,5.17
2022-09-05T06:44:32.398Z,5.03
2022-09-05T06:47:33.656Z,4.70
2022-09-05T06:50:21.724Z,4.80
2022-09-05T06:53:38.240Z,4.87
2022-09-05T06:56:26.021Z,5.90
2022-09-05T06:59:21.633Z,5.33
2022-09-05T07:02:14.924Z,4.70
2022-09-05T07:05:37.154Z,5.17
2022-09-05T07:08:35.308Z,4.60
2022-09-05T07:11:24.150Z,5.20
2022-09-05T07:13:57.594Z,5.10
2022-09-05T07:16:47.203Z,5.10
2022-09-05T07:19:43.325Z,5.20
2022-09-05T07:22:47.739Z,5.23
2022-09-05T07:25:20.329Z,5.27
2022-09-05T07:28:26.352Z,5.30
2022-09-05T07:30:47.531Z,5.37
2022-09-05T07:33:21.504Z,4.97
2022-09-05T07:35:51.549Z,5.20
2022-09-05T07:38:32.583Z,5.03
2022-09-05T07:41:32.404Z,5.40
2022-09-05T07:44:31.000Z,5.33
2022-09-05T07:47:15.758Z,5.00
2022-09-05T07:49:45.746Z,5.30
2022-09-05T07:57:09.635Z,4.90
2022-09-05T07:57:10.576Z,4.27
2022-09-05T07:58:43.928Z,4.70
2022-09-05T08:01:13.387Z,4.20
2022-09-05T08:03:43.947Z,4.57
2022-09-05T08:07:25.654Z,4.03
2022-09-05T08:10:06.350Z,3.80
2022-09-05T08:12:51.934Z,4.20
2022-09-05T08:16:04.295Z,4.00
2022-09-05T08:18:54.663Z,3.20
2022-09-05T08:21:42.226Z,3.73
2022-09-05T08:24:37.847Z,3.80
2022-09-05T08:27:43.023Z,3.30
2022-09-05T08:30:26.203Z,3.50
2022-09-05T08:33:21.756Z,3.63
2022-09-05T08:36:00.743Z,3.30
2022-09-05T08:38:37.375Z,4.00
2022-09-05T08:41:49.284Z,3.97
2022-09-05T08:46:40.131Z,3.30
2022-09-05T08:47:31.974Z,3.40
2022-09-05T08:50:39.360Z,3.90
2022-09-05T08:53:49.204Z,3.90
2022-09-05T08:56:57.383Z,3.60
2022-09-05T08:59:33.335Z,3.30
2022-09-05T09:02:49.266Z,4.30
2022-09-05T09:05:21.379Z,4.03
2022-09-05T09:08:27.058Z,4.70
2022-09-05T09:11:06.477Z,4.13
2022-09-05T09:13:52.145Z,4.07
2022-09-05T09:16:39.636Z,3.80
2022-09-05T09:19:29.332Z,3.60
2022-09-05T09:22:18.942Z,3.70
2022-09-05T09:25:21.160Z,3.37
2022-09-05T09:28:49.645Z,4.07
2022-09-05T09:31:22.016Z,3.50
2022-09-05T09:33:54.776Z,3.40
2022-09-05T09:36:52.466Z,3.30
2022-09-05T09:40:03.295Z,3.20
2022-09-05T09:43:06.930Z,3.53
2022-09-05T09:46:02.222Z,4.00
2022-09-05T09:49:22.517Z,3.67
2022-09-05T09:52:20.557Z,3.73
2022-09-05T09:55:08.055Z,3.40
2022-09-05T09:58:29.426Z,3.73
2022-09-05T10:01:36.418Z,3.87
2022-09-05T10:10:40.438Z,4.50
2022-09-05T10:10:55.283Z,3.77
2022-09-05T10:11:44.087Z,5.00
2022-09-05T10:14:50.095Z,3.77
2022-09-05T10:17:57.701Z,4.13
2022-09-05T10:20:39.308Z,4.10
2022-09-05T10:23:27.842Z,3.77
2022-09-05T10:26:27.614Z,3.90
2022-09-05T10:29:37.200Z,2.97
2022-09-05T10:34:16.067Z,3.30
2022-09-05T10:35:17.538Z,2.80
2022-09-05T10:38:04.376Z,2.83
2022-09-05T10:41:05.136Z,3.40
2022-09-05T10:43:33.272Z,3.40
2022-09-05T10:46:49.078Z,2.90
2022-09-05T10:49:12.478Z,11.97
2022-09-05T10:52:18.646Z,6.27
2022-09-05T10:55:19.882Z,3.80
2022-09-05T10:58:25.200Z,4.40
2022-09-05T11:02:22.382Z,3.53
2022-09-05T11:04:49.791Z,2.73
2022-09-05T11:07:40.146Z,2.80
2022-09-05T11:11:03.676Z,3.17
2022-09-05T11:13:47.825Z,3.07
2022-09-05T11:16:50.771Z,3.00
2022-09-05T11:19:45.295Z,2.77
2022-09-05T11:22:23.833Z,2.87
2022-09-05T11:24:57.362Z,3.00
2022-09-05T11:27:29.978Z,2.00
2022-09-05T11:30:08.817Z,2.67
2022-09-05T11:39:48.753Z,3.30
2022-09-05T11:40:07.647Z,3.30
2022-09-05T11:40:09.799Z,3.60
2022-09-05T11:43:13.665Z,2.47
2022-09-05T11:46:30.066Z,2.97
2022-09-05T11:49:37.497Z,2.57
2022-09-05T11:52:21.506Z,2.40
2022-09-05T11:55:20.850Z,3.47
2022-09-05T11:58:39.885Z,3.10
2022-09-05T12:01:43.203Z,2.60
2022-09-05T12:04:20.040Z,2.13
2022-09-05T12:07:30.589Z,3.43
2022-09-05T12:10:58.695Z,2.70
2022-09-05T12:13:47.086Z,3.07
2022-09-05T12:16:44.968Z,2.17
2022-09-05T12:19:29.822Z,2.20
2022-09-05T12:22:18.702Z,2.20
2022-09-05T12:25:27.126Z,2.60
2022-09-05T12:29:29.235Z,2.37
2022-09-05T12:33:47.971Z,2.30
2022-09-05T12:36:09.705Z,1.93
2022-09-05T12:40:38.407Z,2.03
2022-09-05T12:41:35.580Z,1.80
2022-09-05T12:44:41.945Z,2.17
2022-09-05T12:47:18.766Z,4.30
2022-09-05T12:50:54.592Z,6.43
2022-09-05T12:53:24.857Z,2.53
2022-09-05T12:56:38.729Z,2.07
2022-09-05T13:03:04.570Z,3.37
2022-09-05T13:03:12.331Z,2.70
2022-09-05T13:05:01.106Z,2.70
2022-09-05T13:07:42.869Z,2.00
2022-09-05T13:14:33.468Z,1.90
2022-09-05T13:14:53.960Z,2.80
2022-09-05T13:16:46.965Z,3.00
2022-09-05T13:19:33.590Z,2.10
2022-09-05T13:22:03.283Z,2.37
2022-09-05T13:24:38.525Z,2.30
2022-09-05T13:27:25.218Z,3.87
2022-09-05T13:31:12.370Z,3.93
2022-09-05T13:37:58.389Z,2.40
2022-09-05T13:38:12.567Z,2.40
2022-09-05T13:39:16.333Z,2.37
2022-09-05T13:41:48.754Z,2.10
2022-09-05T13:44:26.854Z,2.63
2022-09-05T13:47:29.692Z,2.30
2022-09-05T13:50:25.630Z,2.10
2022-09-05T13:53:15.673Z,2.10
2022-09-05T13:56:23.967Z,1.60
2022-09-05T13:59:16.124Z,2.23
2022-09-05T14:02:25.708Z,2.17
2022-09-05T14:05:33.176Z,2.13
2022-09-05T14:08:37.191Z,2.43
2022-09-05T14:12:08.060Z,2.50
2022-09-05T14:18:21.197Z,1.97
2022-09-05T14:21:16.692Z,2.50
2022-09-05T14:23:56.040Z,2.10
2022-09-05T14:26:42.526Z,1.87
2022-09-05T14:29:38.970Z,1.90
2022-09-05T14:37:38.656Z,2.10
2022-09-05T14:37:38.869Z,1.90
2022-09-05T14:38:44.087Z,2.40
2022-09-05T14:41:29.335Z,2.30
2022-09-05T14:44:37.899Z,1.97
2022-09-05T14:47:35.398Z,2.00
2022-09-05T14:50:29.244Z,2.43
2022-09-05T14:58:29.820Z,2.20
2022-09-05T15:02:44.635Z,2.30
2022-09-05T15:02:53.944Z,2.40
2022-09-05T15:05:28.942Z,1.90
2022-09-05T15:11:48.626Z,2.23
2022-09-05T15:12:21.670Z,2.63
2022-09-05T15:14:11.966Z,2.07
2022-09-05T15:16:43.649Z,2.10
2022-09-05T15:20:05.216Z,2.10
2022-09-05T15:22:41.738Z,2.20
2022-09-05T15:25:21.417Z,2.67
2022-09-05T15:27:49.552Z,2.40
2022-09-05T15:30:35.411Z,2.47
2022-09-05T15:33:25.777Z,2.10
2022-09-05T15:35:53.836Z,2.20
2022-09-05T15:38:55.890Z,3.00
2022-09-05T15:41:29.643Z,2.37
2022-09-05T15:44:11.210Z,2.77
2022-09-05T15:46:57.100Z,2.53
2022-09-05T15:49:44.758Z,2.60
2022-09-05T15:52:53.469Z,2.00
2022-09-05T15:55:26.477Z,2.30
2022-09-05T15:58:03.072Z,2.00
2022-09-05T16:00:50.742Z,2.30
2022-09-05T16:07:28.035Z,2.07
2022-09-05T16:10:34.099Z,2.43
2022-09-05T16:10:45.943Z,2.20
2022-09-05T16:12:16.204Z,2.43
2022-09-05T16:17:31.314Z,2.17
2022-09-05T16:23:12.081Z,2.57
2022-09-05T16:23:32.022Z,2.50
2022-09-05T16:23:42.875Z,2.30
2022-09-05T16:26:25.600Z,2.80
2022-09-05T16:29:27.046Z,1.97
2022-09-05T16:32:01.953Z,2.50
2022-09-05T16:35:07.685Z,2.83
2022-09-05T16:37:47.179Z,6.70
2022-09-05T16:40:16.995Z,4.50
2022-09-05T16:43:00.206Z,3.00
2022-09-05T16:46:07.551Z,2.50
2022-09-05T16:49:42.177Z,2.80
2022-09-05T16:52:17.264Z,2.20
2022-09-05T16:55:11.847Z,2.40
2022-09-05T16:57:54.464Z,2.70
2022-09-05T17:00:24.707Z,2.40
2022-09-05T17:03:28.720Z,2.50
2022-09-05T17:06:26.269Z,1.93
2022-09-05T17:09:03.262Z,2.00
2022-09-05T17:11:52.396Z,2.23
2022-09-05T17:14:34.994Z,1.90
2022-09-05T17:17:55.255Z,2.40
2022-09-05T17:20:14.806Z,2.27
2022-09-05T17:24:49.283Z,2.30
2022-09-05T17:29:31.933Z,2.47
2022-09-05T17:29:50.034Z,2.30
2022-09-05T17:32:01.663Z,2.30
2022-09-05T17:34:48.162Z,2.70
2022-09-05T17:37:46.047Z,3.00
2022-09-05T17:40:36.417Z,3.13
2022-09-05T17:43:28.553Z,3.00
2022-09-05T17:46:23.051Z,2.60
2022-09-05T17:49:11.424Z,2.30
2022-09-05T17:51:42.060Z,2.63
2022-09-05T17:54:30.914Z,2.80
2022-09-05T17:57:26.608Z,3.00
2022-09-05T17:59:55.376Z,3.30
2022-09-05T18:02:22.322Z,3.10
2022-09-05T18:04:50.151Z,3.33
2022-09-05T18:07:23.057Z,2.80
2022-09-05T18:13:12.658Z,3.23
2022-09-05T18:15:38.136Z,3.53
2022-09-05T18:18:29.953Z,3.10
2022-09-05T18:24:04.667Z,3.00
2022-09-05T18:26:42.728Z,3.37
2022-09-05T18:29:37.192Z,3.90
2022-09-05T18:32:12.223Z,4.17
2022-09-05T18:34:41.253Z,3.60
2022-09-05T18:37:39.085Z,3.80
2022-09-05T18:40:16.600Z,4.00
2022-09-05T18:43:33.378Z,4.00
2022-09-05T18:46:13.778Z,3.33
2022-09-05T18:49:35.356Z,4.10
2022-09-05T18:52:04.177Z,4.20
2022-09-05T18:54:35.107Z,5.50
2022-09-05T18:57:26.706Z,6.20
2022-09-05T19:00:14.578Z,5.70
2022-09-05T19:02:58.826Z,5.63
2022-09-05T19:05:45.573Z,4.80
2022-09-05T19:08:36.087Z,4.37
2022-09-05T19:11:27.920Z,4.47
2022-09-05T19:14:14.270Z,3.60
2022-09-05T19:16:48.117Z,5.10
2022-09-05T19:19:24.574Z,4.00
2022-09-05T19:22:39.456Z,4.30
2022-09-05T19:24:46.195Z,4.57
2022-09-05T19:29:51.597Z,4.30
2022-09-05T19:36:52.191Z,4.00
2022-09-05T19:36:58.277Z,4.17
2022-09-05T19:37:12.861Z,3.70
2022-09-05T19:39:49.410Z,4.37
2022-09-05T19:47:34.401Z,3.73
2022-09-05T19:47:45.337Z,4.97
2022-09-05T19:48:02.442Z,4.60
2022-09-05T19:50:30.913Z,4.70
2022-09-05T19:53:07.216Z,4.47
2022-09-05T19:55:38.588Z,4.13
2022-09-05T19:58:19.833Z,3.87
2022-09-05T20:01:01.543Z,4.00
2022-09-05T20:03:38.586Z,3.57
2022-09-05T20:06:29.331Z,3.80
2022-09-05T20:09:27.566Z,3.47
2022-09-05T20:11:58.547Z,4.20
2022-09-05T20:14:30.963Z,4.40
2022-09-05T20:17:18.550Z,4.93
2022-09-05T20:19:45.843Z,4.73
2022-09-05T20:22:49.683Z,3.73
2022-09-05T20:25:35.848Z,3.97
2022-09-05T20:28:12.042Z,3.50
2022-09-05T20:30:49.358Z,4.30
2022-09-05T20:33:25.080Z,4.40
2022-09-05T20:41:42.024Z,4.00
2022-09-05T20:43:14.982Z,4.70
2022-09-05T20:43:24.163Z,4.50
2022-09-05T20:44:51.767Z,3.90
2022-09-05T20:54:06.427Z,3.37
2022-09-05T20:54:13.199Z,4.70
2022-09-05T20:54:28.653Z,3.97
2022-09-05T20:56:32.398Z,4.80
2022-09-05T20:59:00.871Z,4.57
2022-09-05T21:01:32.274Z,4.97
2022-09-05T21:04:05.253Z,4.40
2022-09-05T21:06:40.427Z,4.50
2022-09-05T21:09:24.675Z,4.53
2022-09-05T21:11:55.674Z,4.37
2022-09-05T21:14:26.018Z,4.60
2022-09-05T21:17:00.759Z,4.83
2022-09-05T21:19:33.709Z,3.80
2022-09-05T21:22:18.574Z,4.20
2022-09-05T21:24:47.152Z,4.87
2022-09-05T21:27:24.572Z,4.77
2022-09-05T21:29:58.925Z,4.77
2022-09-05T21:32:38.194Z,4.60
2022-09-05T21:35:33.638Z,4.30
2022-09-05T21:37:58.600Z,4.80
2022-09-05T21:40:25.787Z,3.73
2022-09-05T21:47:38.636Z,4.60
2022-09-05T21:47:44.091Z,3.97
2022-09-05T21:48:28.337Z,4.20
2022-09-05T21:51:05.373Z,4.13
2022-09-05T21:59:17.398Z,4.10
2022-09-05T21:59:22.613Z,3.70
2022-09-05T21:59:46.038Z,3.90
2022-09-05T22:02:17.254Z,3.67
2022-09-05T22:04:44.698Z,3.17
2022-09-05T22:07:24.262Z,3.67
2022-09-05T22:10:04.715Z,3.50
2022-09-05T22:12:35.725Z,3.77
2022-09-05T22:15:27.564Z,3.87
2022-09-05T22:17:57.040Z,3.70
2022-09-05T22:20:43.388Z,3.60
2022-09-05T22:23:11.287Z,3.53
2022-09-05T22:25:39.560Z,3.80
2022-09-05T22:28:27.378Z,4.13
2022-09-05T22:31:07.904Z,4.40
2022-09-05T22:33:35.975Z,3.80
2022-09-05T22:36:03.485Z,4.80
2022-09-05T22:38:30.431Z,3.60
2022-09-05T22:40:57.585Z,4.43
2022-09-05T22:43:25.615Z,3.87
2022-09-05T22:45:56.332Z,3.93
2022-09-05T22:48:24.005Z,4.07
2022-09-05T22:50:51.027Z,4.30
2022-09-05T22:53:18.091Z,3.23
2022-09-05T22:55:45.014Z,3.47
2022-09-05T22:58:14.165Z,4.37
2022-09-05T23:00:41.662Z,3.87
2022-09-05T23:03:08.632Z,3.73
2022-09-05T23:05:35.494Z,4.10
2022-09-05T23:08:04.055Z,3.53
2022-09-05T23:10:31.990Z,4.20
2022-09-05T23:12:59.192Z,3.90
2022-09-05T23:15:26.123Z,3.50
2022-09-05T23:17:55.330Z,3.50
2022-09-05T23:20:23.707Z,3.53
2022-09-05T23:22:50.538Z,3.60
2022-09-05T23:25:18.560Z,3.87
2022-09-05T23:27:45.523Z,3.50
2022-09-05T23:30:12.997Z,3.60
2022-09-05T23:32:51.267Z,2.93
2022-09-05T23:35:19.280Z,3.47
2022-09-05T23:37:47.989Z,3.37
2022-09-05T23:40:17.812Z,3.30
2022-09-05T23:43:10.834Z,3.30
2022-09-05T23:45:37.671Z,3.00
2022-09-05T23:48:04.617Z,3.40
2022-09-05T23:50:31.516Z,3.20
2022-09-05T23:53:04.471Z,3.73
2022-09-05T23:55:32.752Z,3.87
2022-09-05T23:57:59.760Z,3.40
